Mad River Glen, Vermont
Current Conditions -  °F | °C
As of 8:51 PM on Saturday 25 Oct 2014 (Local Time) from KMPV Reporting Station
Light Rain Light Rain  
Wind Chill: 49°   Ceiling: 4000
Heat Index: 49°   Visibility: 4mi
Dew Point: 46°   Wind: 3mph
Humidity: 90%   Direction: 250°WSW
Pressure: 29.52"   Gusts: NA
Location:  44.1924°N, 72.8443°W
Report Text: KMPV 260051Z AUTO 25003KT 4SM -RA BR SCT032 BKN040 OVC070 09/08 A2952 RMK AO2 RAB14 SLP005 P0004 T00940078 $
Loading
Personal Weather Stations






























Interactive Weather Map
Tropical Storm Tracking
New forecast layout! Learn more

10-Day Weather Forecast

Advertisements
Track Severe Weather on mobile